sensor_id;sensor_type;location;lat;lon;timestamp;temperature;humidity
70807;DHT22;58882;52.170;5.386;2023-06-24T00:02:25;24.70;46.10
70807;DHT22;58882;52.170;5.386;2023-06-24T00:05:19;24.70;46.20
70807;DHT22;58882;52.170;5.386;2023-06-24T00:07:59;24.70;46.30
70807;DHT22;58882;52.170;5.386;2023-06-24T00:10:49;24.70;46.90
70807;DHT22;58882;52.170;5.386;2023-06-24T00:13:23;24.60;46.40
70807;DHT22;58882;52.170;5.386;2023-06-24T00:16:17;24.60;47.50
70807;DHT22;58882;52.170;5.386;2023-06-24T00:18:50;24.60;46.60
70807;DHT22;58882;52.170;5.386;2023-06-24T00:21:49;24.60;46.60
70807;DHT22;58882;52.170;5.386;2023-06-24T00:24:24;24.60;46.70
70807;DHT22;58882;52.170;5.386;2023-06-24T00:27:18;24.60;46.80
70807;DHT22;58882;52.170;5.386;2023-06-24T00:29:52;24.60;47.80
70807;DHT22;58882;52.170;5.386;2023-06-24T00:32:46;24.50;46.80
70807;DHT22;58882;52.170;5.386;2023-06-24T00:35:26;24.50;46.80
70807;DHT22;58882;52.170;5.386;2023-06-24T00:38:13;24.50;46.80
70807;DHT22;58882;52.170;5.386;2023-06-24T00:40:53;24.50;47.90
70807;DHT22;58882;52.170;5.386;2023-06-24T00:43:40;24.50;46.80
70807;DHT22;58882;52.170;5.386;2023-06-24T00:46:13;24.50;46.80
70807;DHT22;58882;52.170;5.386;2023-06-24T00:49:07;24.50;46.70
70807;DHT22;58882;52.170;5.386;2023-06-24T00:52:02;24.50;46.80
70807;DHT22;58882;52.170;5.386;2023-06-24T00:54:43;24.50;46.80
70807;DHT22;58882;52.170;5.386;2023-06-24T00:57:30;24.40;46.70
70807;DHT22;58882;52.170;5.386;2023-06-24T01:00:11;24.40;46.60
70807;DHT22;58882;52.170;5.386;2023-06-24T01:02:58;24.40;46.70
70807;DHT22;58882;52.170;5.386;2023-06-24T01:05:38;24.40;47.80
70807;DHT22;58882;52.170;5.386;2023-06-24T01:08:32;24.40;46.70
70807;DHT22;58882;52.170;5.386;2023-06-24T01:11:12;24.30;46.80
70807;DHT22;58882;52.170;5.386;2023-06-24T01:13:59;24.30;46.80
70807;DHT22;58882;52.170;5.386;2023-06-24T01:20:04;24.30;46.90
70807;DHT22;58882;52.170;5.386;2023-06-24T01:23:25;24.30;46.90
70807;DHT22;58882;52.170;5.386;2023-06-24T01:26:52;24.30;47.10
70807;DHT22;58882;52.170;5.386;2023-06-24T01:32:51;24.30;47.30
70807;DHT22;58882;52.170;5.386;2023-06-24T01:35:35;24.20;47.50
70807;DHT22;58882;52.170;5.386;2023-06-24T01:38:31;24.20;47.40
70807;DHT22;58882;52.170;5.386;2023-06-24T01:41:06;24.10;47.50
70807;DHT22;58882;52.170;5.386;2023-06-24T01:44:00;24.20;47.60
70807;DHT22;58882;52.170;5.386;2023-06-24T01:46:44;24.10;47.70
70807;DHT22;58882;52.170;5.386;2023-06-24T01:49:33;24.10;47.80
70807;DHT22;58882;52.170;5.386;2023-06-24T01:52:32;24.10;48.00
70807;DHT22;58882;52.170;5.386;2023-06-24T01:55:10;24.10;48.10
70807;DHT22;58882;52.170;5.386;2023-06-24T01:58:06;24.10;48.10
70807;DHT22;58882;52.170;5.386;2023-06-24T02:00:40;24.00;48.10
70807;DHT22;58882;52.170;5.386;2023-06-24T02:03:35;24.00;48.20
70807;DHT22;58882;52.170;5.386;2023-06-24T02:06:09;24.00;48.30
70807;DHT22;58882;52.170;5.386;2023-06-24T02:09:05;24.00;48.40
70807;DHT22;58882;52.170;5.386;2023-06-24T02:11:46;24.00;48.50
70807;DHT22;58882;52.170;5.386;2023-06-24T02:14:33;24.00;48.60
70807;DHT22;58882;52.170;5.386;2023-06-24T02:17:09;23.90;48.50
70807;DHT22;58882;52.170;5.386;2023-06-24T02:20:06;23.90;48.60
70807;DHT22;58882;52.170;5.386;2023-06-24T02:22:47;23.90;48.70
70807;DHT22;58882;52.170;5.386;2023-06-24T02:25:41;23.90;48.80
70807;DHT22;58882;52.170;5.386;2023-06-24T02:28:15;23.80;48.80
70807;DHT22;58882;52.170;5.386;2023-06-24T02:31:12;23.90;49.00
70807;DHT22;58882;52.170;5.386;2023-06-24T02:33:46;23.80;49.00
70807;DHT22;58882;52.170;5.386;2023-06-24T02:36:41;23.80;49.10
70807;DHT22;58882;52.170;5.386;2023-06-24T02:39:14;23.80;49.20
70807;DHT22;58882;52.170;5.386;2023-06-24T02:42:12;23.80;49.20
70807;DHT22;58882;52.170;5.386;2023-06-24T02:44:45;23.80;49.20
70807;DHT22;58882;52.170;5.386;2023-06-24T02:47:44;23.80;49.30
70807;DHT22;58882;52.170;5.386;2023-06-24T02:50:18;23.80;49.30
70807;DHT22;58882;52.170;5.386;2023-06-24T02:53:14;23.70;49.60
70807;DHT22;58882;52.170;5.386;2023-06-24T02:55:55;23.70;49.40
70807;DHT22;58882;52.170;5.386;2023-06-24T02:58:54;23.70;49.50
70807;DHT22;58882;52.170;5.386;2023-06-24T03:01:29;23.60;49.50
70807;DHT22;58882;52.170;5.386;2023-06-24T03:04:25;23.70;49.60
70807;DHT22;58882;52.170;5.386;2023-06-24T03:07:06;23.60;49.50
70807;DHT22;58882;52.170;5.386;2023-06-24T03:10:05;23.60;49.50
70807;DHT22;58882;52.170;5.386;2023-06-24T03:12:38;23.60;49.60
70807;DHT22;58882;52.170;5.386;2023-06-24T03:15:40;23.60;49.70
70807;DHT22;58882;52.170;5.386;2023-06-24T03:18:21;23.50;49.60
70807;DHT22;58882;52.170;5.386;2023-06-24T03:21:09;23.50;49.70
70807;DHT22;58882;52.170;5.386;2023-06-24T03:23:49;23.50;49.80
70807;DHT22;58882;52.170;5.386;2023-06-24T03:26:44;23.50;49.80
70807;DHT22;58882;52.170;5.386;2023-06-24T03:29:31;23.50;50.00
70807;DHT22;58882;52.170;5.386;2023-06-24T03:32:19;23.50;50.00
70807;DHT22;58882;52.170;5.386;2023-06-24T03:34:59;23.50;50.10
70807;DHT22;58882;52.170;5.386;2023-06-24T03:37:47;23.50;50.30
70807;DHT22;58882;52.170;5.386;2023-06-24T03:40:27;23.50;50.30
70807;DHT22;58882;52.170;5.386;2023-06-24T03:43:14;23.50;50.30
70807;DHT22;58882;52.170;5.386;2023-06-24T03:45:55;23.40;50.40
70807;DHT22;58882;52.170;5.386;2023-06-24T03:48:43;23.40;50.40
70807;DHT22;58882;52.170;5.386;2023-06-24T03:51:23;23.40;50.50
70807;DHT22;58882;52.170;5.386;2023-06-24T03:54:10;23.40;50.30
70807;DHT22;58882;52.170;5.386;2023-06-24T03:56:50;23.40;50.10
70807;DHT22;58882;52.170;5.386;2023-06-24T03:59:37;23.40;49.80
70807;DHT22;58882;52.170;5.386;2023-06-24T04:02:17;23.40;49.80
70807;DHT22;58882;52.170;5.386;2023-06-24T04:05:05;23.40;49.60
70807;DHT22;58882;52.170;5.386;2023-06-24T04:07:47;23.30;49.50
70807;DHT22;58882;52.170;5.386;2023-06-24T04:10:34;23.40;49.50
70807;DHT22;58882;52.170;5.386;2023-06-24T04:13:14;23.40;49.50
70807;DHT22;58882;52.170;5.386;2023-06-24T04:16:08;23.40;49.80
70807;DHT22;58882;52.170;5.386;2023-06-24T04:18:48;23.30;49.60
70807;DHT22;58882;52.170;5.386;2023-06-24T04:21:35;23.30;49.40
70807;DHT22;58882;52.170;5.386;2023-06-24T04:24:15;23.30;49.20
70807;DHT22;58882;52.170;5.386;2023-06-24T04:26:55;23.30;49.20
70807;DHT22;58882;52.170;5.386;2023-06-24T04:29:49;23.30;49.10
70807;DHT22;58882;52.170;5.386;2023-06-24T04:32:22;23.30;49.00
70807;DHT22;58882;52.170;5.386;2023-06-24T04:35:16;23.30;49.00
70807;DHT22;58882;52.170;5.386;2023-06-24T04:37:56;23.30;49.10
70807;DHT22;58882;52.170;5.386;2023-06-24T04:40:43;23.30;48.90
70807;DHT22;58882;52.170;5.386;2023-06-24T04:43:17;23.30;48.90
70807;DHT22;58882;52.170;5.386;2023-06-24T04:46:11;23.30;48.90
70807;DHT22;58882;52.170;5.386;2023-06-24T04:48:44;23.30;49.00
70807;DHT22;58882;52.170;5.386;2023-06-24T04:51:38;23.30;48.90
70807;DHT22;58882;52.170;5.386;2023-06-24T04:54:13;23.30;49.00
70807;DHT22;58882;52.170;5.386;2023-06-24T04:57:26;23.30;49.00
70807;DHT22;58882;52.170;5.386;2023-06-24T05:00:08;23.30;49.10
70807;DHT22;58882;52.170;5.386;2023-06-24T05:02:55;23.30;49.10
70807;DHT22;58882;52.170;5.386;2023-06-24T05:05:28;23.30;49.00
70807;DHT22;58882;52.170;5.386;2023-06-24T05:08:22;23.30;49.00
70807;DHT22;58882;52.170;5.386;2023-06-24T05:10:55;23.30;48.90
70807;DHT22;58882;52.170;5.386;2023-06-24T05:13:49;23.30;48.90
70807;DHT22;58882;52.170;5.386;2023-06-24T05:16:29;23.40;49.90
70807;DHT22;58882;52.170;5.386;2023-06-24T05:19:16;23.40;49.00
70807;DHT22;58882;52.170;5.386;2023-06-24T05:21:56;23.40;48.80
70807;DHT22;58882;52.170;5.386;2023-06-24T05:24:43;23.40;48.70
70807;DHT22;58882;52.170;5.386;2023-06-24T05:27:23;23.40;48.60
70807;DHT22;58882;52.170;5.386;2023-06-24T05:30:10;23.40;48.40
70807;DHT22;58882;52.170;5.386;2023-06-24T05:32:58;23.40;48.30
70807;DHT22;58882;52.170;5.386;2023-06-24T05:35:52;23.40;48.30
70807;DHT22;58882;52.170;5.386;2023-06-24T05:38:25;23.40;48.50
70807;DHT22;58882;52.170;5.386;2023-06-24T05:41:19;23.40;48.50
70807;DHT22;58882;52.170;5.386;2023-06-24T05:44:07;23.40;48.60
70807;DHT22;58882;52.170;5.386;2023-06-24T05:47:01;23.50;48.50
70807;DHT22;58882;52.170;5.386;2023-06-24T05:49:34;23.50;48.50
70807;DHT22;58882;52.170;5.386;2023-06-24T05:52:28;23.50;48.30
70807;DHT22;58882;52.170;5.386;2023-06-24T05:55:02;23.50;48.30
70807;DHT22;58882;52.170;5.386;2023-06-24T05:57:56;23.60;48.30
70807;DHT22;58882;52.170;5.386;2023-06-24T06:00:29;23.60;48.10
70807;DHT22;58882;52.170;5.386;2023-06-24T06:03:23;23.60;48.10
70807;DHT22;58882;52.170;5.386;2023-06-24T06:05:57;23.70;47.80
70807;DHT22;58882;52.170;5.386;2023-06-24T06:08:51;23.70;47.90
70807;DHT22;58882;52.170;5.386;2023-06-24T06:11:31;23.70;48.90
70807;DHT22;58882;52.170;5.386;2023-06-24T06:14:18;23.70;47.60
70807;DHT22;58882;52.170;5.386;2023-06-24T06:16:51;23.70;47.60
70807;DHT22;58882;52.170;5.386;2023-06-24T06:19:45;23.80;47.70
70807;DHT22;58882;52.170;5.386;2023-06-24T06:22:22;23.80;47.40
70807;DHT22;58882;52.170;5.386;2023-06-24T06:25:16;23.80;47.60
70807;DHT22;58882;52.170;5.386;2023-06-24T06:27:56;23.80;47.60
70807;DHT22;58882;52.170;5.386;2023-06-24T06:30:50;23.90;47.40
70807;DHT22;58882;52.170;5.386;2023-06-24T06:33:30;23.90;48.40
70807;DHT22;58882;52.170;5.386;2023-06-24T06:36:24;24.00;47.40
70807;DHT22;58882;52.170;5.386;2023-06-24T06:38:57;24.00;47.20
70807;DHT22;58882;52.170;5.386;2023-06-24T06:41:51;24.10;47.10
70807;DHT22;58882;52.170;5.386;2023-06-24T06:44:31;24.10;47.20
70807;DHT22;58882;52.170;5.386;2023-06-24T06:47:18;24.20;47.20
70807;DHT22;58882;52.170;5.386;2023-06-24T06:50:05;24.20;47.00
70807;DHT22;58882;52.170;5.386;2023-06-24T06:53:00;24.30;46.90
70807;DHT22;58882;52.170;5.386;2023-06-24T06:55:40;24.40;46.70
70807;DHT22;58882;52.170;5.386;2023-06-24T06:58:27;24.50;46.70
70807;DHT22;58882;52.170;5.386;2023-06-24T07:01:07;24.50;46.60
70807;DHT22;58882;52.170;5.386;2023-06-24T07:03:54;24.50;46.50
70807;DHT22;58882;52.170;5.386;2023-06-24T07:06:34;24.50;47.40
70807;DHT22;58882;52.170;5.386;2023-06-24T07:09:21;24.60;46.50
70807;DHT22;58882;52.170;5.386;2023-06-24T07:12:01;24.60;46.50
70807;DHT22;58882;52.170;5.386;2023-06-24T07:14:48;24.60;46.30
70807;DHT22;58882;52.170;5.386;2023-06-24T07:17:28;24.70;46.40
70807;DHT22;58882;52.170;5.386;2023-06-24T07:20:15;24.70;46.30
70807;DHT22;58882;52.170;5.386;2023-06-24T07:22:55;24.70;46.20
70807;DHT22;58882;52.170;5.386;2023-06-24T07:25:43;24.70;46.10
70807;DHT22;58882;52.170;5.386;2023-06-24T07:28:23;24.80;46.00
70807;DHT22;58882;52.170;5.386;2023-06-24T07:31:10;24.90;46.00
70807;DHT22;58882;52.170;5.386;2023-06-24T07:33:50;24.90;46.00
70807;DHT22;58882;52.170;5.386;2023-06-24T07:36:37;24.90;45.90
70807;DHT22;58882;52.170;5.386;2023-06-24T07:39:17;25.00;45.90
70807;DHT22;58882;52.170;5.386;2023-06-24T07:42:11;25.20;45.80
70807;DHT22;58882;52.170;5.386;2023-06-24T07:44:51;25.40;46.60
70807;DHT22;58882;52.170;5.386;2023-06-24T07:47:38;25.70;45.20
70807;DHT22;58882;52.170;5.386;2023-06-24T07:50:27;25.90;44.50
70807;DHT22;58882;52.170;5.386;2023-06-24T07:53:22;26.30;43.90
70807;DHT22;58882;52.170;5.386;2023-06-24T07:55:55;26.70;43.20
70807;DHT22;58882;52.170;5.386;2023-06-24T07:58:49;27.10;42.50
70807;DHT22;58882;52.170;5.386;2023-06-24T08:01:22;27.50;41.80
70807;DHT22;58882;52.170;5.386;2023-06-24T08:04:16;27.80;41.30
70807;DHT22;58882;52.170;5.386;2023-06-24T08:06:56;28.00;40.60
70807;DHT22;58882;52.170;5.386;2023-06-24T08:09:43;28.30;40.10
70807;DHT22;58882;52.170;5.386;2023-06-24T08:12:16;28.50;39.70
70807;DHT22;58882;52.170;5.386;2023-06-24T08:15:10;28.70;39.30
70807;DHT22;58882;52.170;5.386;2023-06-24T08:17:43;28.80;38.80
70807;DHT22;58882;52.170;5.386;2023-06-24T08:20:37;29.10;38.50
70807;DHT22;58882;52.170;5.386;2023-06-24T08:23:10;29.20;38.10
70807;DHT22;58882;52.170;5.386;2023-06-24T08:26:04;29.40;37.80
70807;DHT22;58882;52.170;5.386;2023-06-24T08:28:49;29.50;37.40
70807;DHT22;58882;52.170;5.386;2023-06-24T08:31:36;29.70;37.10
70807;DHT22;58882;52.170;5.386;2023-06-24T08:34:16;29.80;37.70
70807;DHT22;58882;52.170;5.386;2023-06-24T08:36:59;30.00;36.40
70807;DHT22;58882;52.170;5.386;2023-06-24T08:39:46;30.20;36.10
70807;DHT22;58882;52.170;5.386;2023-06-24T08:42:20;30.30;35.80
70807;DHT22;58882;52.170;5.386;2023-06-24T08:45:14;30.50;35.60
70807;DHT22;58882;52.170;5.386;2023-06-24T08:48:08;30.70;35.10
70807;DHT22;58882;52.170;5.386;2023-06-24T08:50:56;31.10;34.40
70807;DHT22;58882;52.170;5.386;2023-06-24T08:53:37;31.40;33.70
70807;DHT22;58882;52.170;5.386;2023-06-24T08:56:25;31.70;33.20
70807;DHT22;58882;52.170;5.386;2023-06-24T08:59:08;31.80;32.80
70807;DHT22;58882;52.170;5.386;2023-06-24T09:01:59;31.90;33.50
70807;DHT22;58882;52.170;5.386;2023-06-24T09:04:40;31.90;32.30
70807;DHT22;58882;52.170;5.386;2023-06-24T09:07:28;31.90;32.20
70807;DHT22;58882;52.170;5.386;2023-06-24T09:10:09;31.90;32.20
70807;DHT22;58882;52.170;5.386;2023-06-24T09:13:04;32.10;32.00
70807;DHT22;58882;52.170;5.386;2023-06-24T09:15:44;32.20;32.70
70807;DHT22;58882;52.170;5.386;2023-06-24T09:18:31;32.40;31.40
70807;DHT22;58882;52.170;5.386;2023-06-24T09:21:11;32.50;31.10
70807;DHT22;58882;52.170;5.386;2023-06-24T09:24:05;32.70;30.90
70807;DHT22;58882;52.170;5.386;2023-06-24T09:26:42;32.80;30.60
70807;DHT22;58882;52.170;5.386;2023-06-24T09:29:36;32.90;30.30
70807;DHT22;58882;52.170;5.386;2023-06-24T09:32:09;33.00;30.20
70807;DHT22;58882;52.170;5.386;2023-06-24T09:35:04;33.20;30.00
70807;DHT22;58882;52.170;5.386;2023-06-24T09:37:39;33.20;29.90
70807;DHT22;58882;52.170;5.386;2023-06-24T09:40:35;33.30;29.80
70807;DHT22;58882;52.170;5.386;2023-06-24T09:43:20;33.40;29.70
70807;DHT22;58882;52.170;5.386;2023-06-24T09:46:07;33.50;29.60
70807;DHT22;58882;52.170;5.386;2023-06-24T09:48:48;33.50;29.40
70807;DHT22;58882;52.170;5.386;2023-06-24T09:51:38;33.60;29.40
70807;DHT22;58882;52.170;5.386;2023-06-24T09:54:18;33.60;29.30
70807;DHT22;58882;52.170;5.386;2023-06-24T09:57:14;33.70;29.30
70807;DHT22;58882;52.170;5.386;2023-06-24T09:59:56;33.70;29.20
70807;DHT22;58882;52.170;5.386;2023-06-24T10:02:53;33.80;29.10
70807;DHT22;58882;52.170;5.386;2023-06-24T10:05:33;33.80;29.00
70807;DHT22;58882;52.170;5.386;2023-06-24T10:08:20;33.90;29.00
70807;DHT22;58882;52.170;5.386;2023-06-24T10:10:53;33.90;28.90
70807;DHT22;58882;52.170;5.386;2023-06-24T10:13:47;33.90;28.80
70807;DHT22;58882;52.170;5.386;2023-06-24T10:16:27;33.90;28.70
70807;DHT22;58882;52.170;5.386;2023-06-24T10:19:21;34.00;28.70
70807;DHT22;58882;52.170;5.386;2023-06-24T10:21:59;33.90;28.60
70807;DHT22;58882;52.170;5.386;2023-06-24T10:24:53;34.00;28.60
70807;DHT22;58882;52.170;5.386;2023-06-24T10:27:26;34.00;28.60
70807;DHT22;58882;52.170;5.386;2023-06-24T10:30:21;34.00;28.60
70807;DHT22;58882;52.170;5.386;2023-06-24T10:32:56;34.00;28.60
70807;DHT22;58882;52.170;5.386;2023-06-24T10:35:50;34.00;28.60
70807;DHT22;58882;52.170;5.386;2023-06-24T10:38:30;34.00;28.50
70807;DHT22;58882;52.170;5.386;2023-06-24T10:41:17;33.90;28.50
70807;DHT22;58882;52.170;5.386;2023-06-24T10:43:58;33.80;28.80
70807;DHT22;58882;52.170;5.386;2023-06-24T10:46:52;33.50;29.10
70807;DHT22;58882;52.170;5.386;2023-06-24T10:49:33;33.40;29.40
70807;DHT22;58882;52.170;5.386;2023-06-24T10:52:27;33.50;29.30
70807;DHT22;58882;52.170;5.386;2023-06-24T10:55:07;33.50;29.10
70807;DHT22;58882;52.170;5.386;2023-06-24T10:57:54;33.50;29.10
70807;DHT22;58882;52.170;5.386;2023-06-24T11:00:34;33.50;29.20
70807;DHT22;58882;52.170;5.386;2023-06-24T11:03:34;33.30;29.40
70807;DHT22;58882;52.170;5.386;2023-06-24T11:06:14;33.20;29.60
70807;DHT22;58882;52.170;5.386;2023-06-24T11:09:02;33.20;29.50
70807;DHT22;58882;52.170;5.386;2023-06-24T11:11:35;33.00;29.60
70807;DHT22;58882;52.170;5.386;2023-06-24T11:14:33;32.90;29.80
70807;DHT22;58882;52.170;5.386;2023-06-24T11:17:06;32.90;29.90
70807;DHT22;58882;52.170;5.386;2023-06-24T11:20:01;33.00;29.80
70807;DHT22;58882;52.170;5.386;2023-06-24T11:22:36;33.00;29.70
70807;DHT22;58882;52.170;5.386;2023-06-24T11:25:30;33.10;29.60
70807;DHT22;58882;52.170;5.386;2023-06-24T11:28:17;33.00;29.60
70807;DHT22;58882;52.170;5.386;2023-06-24T11:31:07;32.80;29.70
70807;DHT22;58882;52.170;5.386;2023-06-24T11:33:50;32.50;30.00
70807;DHT22;58882;52.170;5.386;2023-06-24T11:36:48;32.20;30.30
70807;DHT22;58882;52.170;5.386;2023-06-24T11:39:23;31.90;30.80
70807;DHT22;58882;52.170;5.386;2023-06-24T11:42:17;31.70;31.30
70807;DHT22;58882;52.170;5.386;2023-06-24T11:44:50;31.50;31.70
70807;DHT22;58882;52.170;5.386;2023-06-24T11:47:44;31.30;31.90
70807;DHT22;58882;52.170;5.386;2023-06-24T11:50:17;31.10;32.30
70807;DHT22;58882;52.170;5.386;2023-06-24T11:53:11;31.00;32.60
70807;DHT22;58882;52.170;5.386;2023-06-24T11:55:56;30.80;32.90
70807;DHT22;58882;52.170;5.386;2023-06-24T11:58:50;30.70;33.20
70807;DHT22;58882;52.170;5.386;2023-06-24T12:01:32;30.50;33.30
70807;DHT22;58882;52.170;5.386;2023-06-24T12:04:19;30.40;33.60
70807;DHT22;58882;52.170;5.386;2023-06-24T12:07:00;30.40;33.90
70807;DHT22;58882;52.170;5.386;2023-06-24T12:09:54;30.30;34.00
70807;DHT22;58882;52.170;5.386;2023-06-24T12:12:28;30.20;34.20
70807;DHT22;58882;52.170;5.386;2023-06-24T12:15:22;30.10;35.40
70807;DHT22;58882;52.170;5.386;2023-06-24T12:18:03;30.00;34.40
70807;DHT22;58882;52.170;5.386;2023-06-24T12:20:49;29.90;35.70
70807;DHT22;58882;52.170;5.386;2023-06-24T12:23:29;29.90;34.70
70807;DHT22;58882;52.170;5.386;2023-06-24T12:26:16;29.90;34.70
70807;DHT22;58882;52.170;5.386;2023-06-24T12:28:57;30.10;34.50
70807;DHT22;58882;52.170;5.386;2023-06-24T12:31:43;30.10;35.50
70807;DHT22;58882;52.170;5.386;2023-06-24T12:34:23;30.20;34.50
70807;DHT22;58882;52.170;5.386;2023-06-24T12:37:10;30.20;34.50
70807;DHT22;58882;52.170;5.386;2023-06-24T12:39:50;30.20;34.60
70807;DHT22;58882;52.170;5.386;2023-06-24T12:42:37;30.20;34.50
70807;DHT22;58882;52.170;5.386;2023-06-24T12:45:17;30.20;34.60
70807;DHT22;58882;52.170;5.386;2023-06-24T12:48:07;30.20;34.70
70807;DHT22;58882;52.170;5.386;2023-06-24T12:50:54;30.10;34.70
70807;DHT22;58882;52.170;5.386;2023-06-24T12:53:34;30.10;34.80
70807;DHT22;58882;52.170;5.386;2023-06-24T12:56:21;30.10;34.90
70807;DHT22;58882;52.170;5.386;2023-06-24T12:59:01;30.00;35.00
70807;DHT22;58882;52.170;5.386;2023-06-24T13:01:49;29.90;35.10
70807;DHT22;58882;52.170;5.386;2023-06-24T13:04:22;29.90;35.20
70807;DHT22;58882;52.170;5.386;2023-06-24T13:07:16;29.80;35.30
70807;DHT22;58882;52.170;5.386;2023-06-24T13:09:49;29.80;35.50
70807;DHT22;58882;52.170;5.386;2023-06-24T13:12:43;29.70;35.50
70807;DHT22;58882;52.170;5.386;2023-06-24T13:15:24;29.70;35.70
70807;DHT22;58882;52.170;5.386;2023-06-24T13:18:11;29.70;35.80
70807;DHT22;58882;52.170;5.386;2023-06-24T13:20:51;29.60;35.80
70807;DHT22;58882;52.170;5.386;2023-06-24T13:23:55;29.60;35.90
70807;DHT22;58882;52.170;5.386;2023-06-24T13:26:35;29.50;36.00
70807;DHT22;58882;52.170;5.386;2023-06-24T13:29:22;29.50;36.00
70807;DHT22;58882;52.170;5.386;2023-06-24T13:32:02;29.40;36.10
70807;DHT22;58882;52.170;5.386;2023-06-24T13:34:49;29.40;36.10
70807;DHT22;58882;52.170;5.386;2023-06-24T13:37:29;29.40;36.20
70807;DHT22;58882;52.170;5.386;2023-06-24T13:40:23;29.40;36.30
70807;DHT22;58882;52.170;5.386;2023-06-24T13:42:57;29.30;36.30
70807;DHT22;58882;52.170;5.386;2023-06-24T13:45:51;29.30;36.30
70807;DHT22;58882;52.170;5.386;2023-06-24T13:48:24;29.20;36.40
70807;DHT22;58882;52.170;5.386;2023-06-24T13:51:18;29.20;36.50
70807;DHT22;58882;52.170;5.386;2023-06-24T13:53:58;29.10;36.60
70807;DHT22;58882;52.170;5.386;2023-06-24T13:56:45;29.10;36.70
70807;DHT22;58882;52.170;5.386;2023-06-24T13:59:25;29.10;36.70
70807;DHT22;58882;52.170;5.386;2023-06-24T14:02:12;29.00;36.80
70807;DHT22;58882;52.170;5.386;2023-06-24T14:04:46;29.00;36.90
70807;DHT22;58882;52.170;5.386;2023-06-24T14:07:40;29.00;36.90
70807;DHT22;58882;52.170;5.386;2023-06-24T14:10:14;28.90;37.00
70807;DHT22;58882;52.170;5.386;2023-06-24T14:13:08;28.90;37.00
70807;DHT22;58882;52.170;5.386;2023-06-24T14:15:42;28.90;37.00
70807;DHT22;58882;52.170;5.386;2023-06-24T14:18:37;28.90;37.00
70807;DHT22;58882;52.170;5.386;2023-06-24T14:21:10;28.80;37.00
70807;DHT22;58882;52.170;5.386;2023-06-24T14:24:05;28.80;37.00
70807;DHT22;58882;52.170;5.386;2023-06-24T14:26:49;28.80;37.10
70807;DHT22;58882;52.170;5.386;2023-06-24T14:29:43;28.80;37.10
70807;DHT22;58882;52.170;5.386;2023-06-24T14:32:23;28.70;37.10
70807;DHT22;58882;52.170;5.386;2023-06-24T14:35:10;28.70;37.20
70807;DHT22;58882;52.170;5.386;2023-06-24T14:37:43;28.70;37.30
70807;DHT22;58882;52.170;5.386;2023-06-24T14:40:37;28.70;37.40
70807;DHT22;58882;52.170;5.386;2023-06-24T14:43:10;28.60;37.40
70807;DHT22;58882;52.170;5.386;2023-06-24T14:45:58;28.60;37.50
70807;DHT22;58882;52.170;5.386;2023-06-24T14:48:45;28.60;37.60
70807;DHT22;58882;52.170;5.386;2023-06-24T14:51:32;28.60;37.60
70807;DHT22;58882;52.170;5.386;2023-06-24T14:54:12;28.60;37.70
70807;DHT22;58882;52.170;5.386;2023-06-24T14:56:59;28.60;37.70
70807;DHT22;58882;52.170;5.386;2023-06-24T14:59:32;28.50;37.70
70807;DHT22;58882;52.170;5.386;2023-06-24T15:02:26;28.50;37.70
70807;DHT22;58882;52.170;5.386;2023-06-24T15:05:06;28.50;37.80
70807;DHT22;58882;52.170;5.386;2023-06-24T15:07:46;28.50;37.80
70807;DHT22;58882;52.170;5.386;2023-06-24T15:10:40;28.50;37.90
70807;DHT22;58882;52.170;5.386;2023-06-24T15:13:13;28.50;38.00
70807;DHT22;58882;52.170;5.386;2023-06-24T15:16:07;28.40;38.00
70807;DHT22;58882;52.170;5.386;2023-06-24T15:18:47;28.40;38.00
70807;DHT22;58882;52.170;5.386;2023-06-24T15:21:41;28.30;38.10
70807;DHT22;58882;52.170;5.386;2023-06-24T15:24:14;28.30;38.20
70807;DHT22;58882;52.170;5.386;2023-06-24T15:27:08;28.30;38.30
70807;DHT22;58882;52.170;5.386;2023-06-24T15:29:49;28.30;38.40
70807;DHT22;58882;52.170;5.386;2023-06-24T15:32:43;28.30;38.50
70807;DHT22;58882;52.170;5.386;2023-06-24T15:35:25;28.20;38.50
70807;DHT22;58882;52.170;5.386;2023-06-24T15:38:12;28.20;38.50
70807;DHT22;58882;52.170;5.386;2023-06-24T15:40:52;28.20;38.60
70807;DHT22;58882;52.170;5.386;2023-06-24T15:43:40;28.20;38.70
70807;DHT22;58882;52.170;5.386;2023-06-24T15:46:20;28.10;38.70
70807;DHT22;58882;52.170;5.386;2023-06-24T15:49:07;28.10;38.70
70807;DHT22;58882;52.170;5.386;2023-06-24T15:51:54;28.10;38.70
70807;DHT22;58882;52.170;5.386;2023-06-24T15:54:34;28.10;38.70
70807;DHT22;58882;52.170;5.386;2023-06-24T15:57:21;28.10;38.80
70807;DHT22;58882;52.170;5.386;2023-06-24T16:00:01;28.00;38.80
70807;DHT22;58882;52.170;5.386;2023-06-24T16:02:50;28.00;38.80
70807;DHT22;58882;52.170;5.386;2023-06-24T16:05:30;28.00;38.90
70807;DHT22;58882;52.170;5.386;2023-06-24T16:08:18;28.00;39.00
70807;DHT22;58882;52.170;5.386;2023-06-24T16:10:59;28.00;39.10
70807;DHT22;58882;52.170;5.386;2023-06-24T16:13:47;28.00;39.20
70807;DHT22;58882;52.170;5.386;2023-06-24T16:16:27;27.90;39.20
70807;DHT22;58882;52.170;5.386;2023-06-24T16:19:14;27.90;39.30
70807;DHT22;58882;52.170;5.386;2023-06-24T16:21:54;27.90;39.60
70807;DHT22;58882;52.170;5.386;2023-06-24T16:24:41;27.90;39.70
70807;DHT22;58882;52.170;5.386;2023-06-24T16:27:14;27.80;39.80
70807;DHT22;58882;52.170;5.386;2023-06-24T16:30:08;27.90;40.10
70807;DHT22;58882;52.170;5.386;2023-06-24T16:32:41;27.80;40.20
70807;DHT22;58882;52.170;5.386;2023-06-24T16:35:35;27.80;40.40
70807;DHT22;58882;52.170;5.386;2023-06-24T16:38:15;27.80;40.50
70807;DHT22;58882;52.170;5.386;2023-06-24T16:41:02;27.80;41.70
70807;DHT22;58882;52.170;5.386;2023-06-24T16:43:48;27.80;40.90
70807;DHT22;58882;52.170;5.386;2023-06-24T16:46:35;27.70;40.80
70807;DHT22;58882;52.170;5.386;2023-06-24T16:49:15;27.70;41.00
70807;DHT22;58882;52.170;5.386;2023-06-24T16:52:02;27.70;41.10
70807;DHT22;58882;52.170;5.386;2023-06-24T16:54:42;27.70;41.20
70807;DHT22;58882;52.170;5.386;2023-06-24T16:57:29;27.70;41.20
70807;DHT22;58882;52.170;5.386;2023-06-24T17:00:10;27.70;41.40
70807;DHT22;58882;52.170;5.386;2023-06-24T17:02:57;27.70;41.40
70807;DHT22;58882;52.170;5.386;2023-06-24T17:05:37;27.60;42.50
70807;DHT22;58882;52.170;5.386;2023-06-24T17:08:31;27.60;41.40
70807;DHT22;58882;52.170;5.386;2023-06-24T17:11:04;27.60;41.60
70807;DHT22;58882;52.170;5.386;2023-06-24T17:13:58;27.60;41.70
70807;DHT22;58882;52.170;5.386;2023-06-24T17:16:39;27.60;41.80
70807;DHT22;58882;52.170;5.386;2023-06-24T17:19:26;27.60;41.80
70807;DHT22;58882;52.170;5.386;2023-06-24T17:22:06;27.60;41.90
70807;DHT22;58882;52.170;5.386;2023-06-24T17:24:53;27.50;41.90
70807;DHT22;58882;52.170;5.386;2023-06-24T17:27:33;27.50;42.00
70807;DHT22;58882;52.170;5.386;2023-06-24T17:30:20;27.50;42.10